sensor_id;sensor_type;location;lat;lon;timestamp;temperature;humidity
40960;DHT22;27842;52.272;8.052;2023-01-10T00:02:21;7.00;99.90
40960;DHT22;27842;52.272;8.052;2023-01-10T00:04:46;7.00;99.90
40960;DHT22;27842;52.272;8.052;2023-01-10T00:07:12;7.00;99.90
40960;DHT22;27842;52.272;8.052;2023-01-10T00:09:37;6.90;99.90
40960;DHT22;27842;52.272;8.052;2023-01-10T00:12:03;6.90;99.90
40960;DHT22;27842;52.272;8.052;2023-01-10T00:14:47;6.90;99.90
40960;DHT22;27842;52.272;8.052;2023-01-10T00:17:12;6.90;99.90
40960;DHT22;27842;52.272;8.052;2023-01-10T00:19:38;6.90;99.90
40960;DHT22;27842;52.272;8.052;2023-01-10T00:22:03;6.90;99.90
40960;DHT22;27842;52.272;8.052;2023-01-10T00:24:30;6.80;99.90
40960;DHT22;27842;52.272;8.052;2023-01-10T00:26:55;6.80;99.90
40960;DHT22;27842;52.272;8.052;2023-01-10T00:29:26;6.80;99.90
40960;DHT22;27842;52.272;8.052;2023-01-10T00:31:52;6.80;99.90
40960;DHT22;27842;52.272;8.052;2023-01-10T00:34:18;6.80;99.90
40960;DHT22;27842;52.272;8.052;2023-01-10T00:36:44;6.80;99.90
40960;DHT22;27842;52.272;8.052;2023-01-10T00:39:11;6.80;99.90
40960;DHT22;27842;52.272;8.052;2023-01-10T00:41:37;6.80;99.90
40960;DHT22;27842;52.272;8.052;2023-01-10T00:44:21;6.80;99.90
40960;DHT22;27842;52.272;8.052;2023-01-10T00:46:47;6.80;99.90
40960;DHT22;27842;52.272;8.052;2023-01-10T00:49:13;6.80;99.90
40960;DHT22;27842;52.272;8.052;2023-01-10T00:51:41;6.80;99.90
40960;DHT22;27842;52.272;8.052;2023-01-10T00:54:08;6.90;99.90
40960;DHT22;27842;52.272;8.052;2023-01-10T00:56:34;6.80;99.90
40960;DHT22;27842;52.272;8.052;2023-01-10T00:58:59;6.80;99.90
40960;DHT22;27842;52.272;8.052;2023-01-10T01:01:25;6.80;99.90
40960;DHT22;27842;52.272;8.052;2023-01-10T01:03:50;6.80;99.90
40960;DHT22;27842;52.272;8.052;2023-01-10T01:06:16;6.80;99.90
40960;DHT22;27842;52.272;8.052;2023-01-10T01:08:41;6.80;99.90
40960;DHT22;27842;52.272;8.052;2023-01-10T01:11:07;6.80;99.90
40960;DHT22;27842;52.272;8.052;2023-01-10T01:13:32;6.80;99.90
40960;DHT22;27842;52.272;8.052;2023-01-10T01:15:58;6.80;99.90
40960;DHT22;27842;52.272;8.052;2023-01-10T01:18:25;6.80;99.90
40960;DHT22;27842;52.272;8.052;2023-01-10T01:20:56;6.80;99.90
40960;DHT22;27842;52.272;8.052;2023-01-10T01:23:22;6.80;99.90
40960;DHT22;27842;52.272;8.052;2023-01-10T01:25:52;6.80;99.90
40960;DHT22;27842;52.272;8.052;2023-01-10T01:28:18;6.80;99.90
40960;DHT22;27842;52.272;8.052;2023-01-10T01:30:44;6.80;99.90
40960;DHT22;27842;52.272;8.052;2023-01-10T01:33:09;6.80;99.90
40960;DHT22;27842;52.272;8.052;2023-01-10T01:35:35;6.80;99.90
40960;DHT22;27842;52.272;8.052;2023-01-10T01:38:00;6.70;99.90
40960;DHT22;27842;52.272;8.052;2023-01-10T01:40:26;6.70;99.90
40960;DHT22;27842;52.272;8.052;2023-01-10T01:42:51;6.70;99.90
40960;DHT22;27842;52.272;8.052;2023-01-10T01:47:59;6.80;99.90
40960;DHT22;27842;52.272;8.052;2023-01-10T01:50:35;6.80;99.90
40960;DHT22;27842;52.272;8.052;2023-01-10T01:53:07;6.80;99.90
40960;DHT22;27842;52.272;8.052;2023-01-10T01:55:35;6.80;99.90
40960;DHT22;27842;52.272;8.052;2023-01-10T01:58:05;6.80;99.90
40960;DHT22;27842;52.272;8.052;2023-01-10T02:00:32;6.70;99.90
40960;DHT22;27842;52.272;8.052;2023-01-10T02:03:01;6.70;99.90
40960;DHT22;27842;52.272;8.052;2023-01-10T03:33:44;6.60;99.90
40960;DHT22;27842;52.272;8.052;2023-01-10T03:36:30;6.60;99.90
40960;DHT22;27842;52.272;8.052;2023-01-10T03:39:07;6.50;99.90
40960;DHT22;27842;52.272;8.052;2023-01-10T03:41:51;6.60;99.90
40960;DHT22;27842;52.272;8.052;2023-01-10T03:50:07;6.60;99.90
40960;DHT22;27842;52.272;8.052;2023-01-10T03:52:35;6.50;99.90
40960;DHT22;27842;52.272;8.052;2023-01-10T03:55:01;6.50;99.90
40960;DHT22;27842;52.272;8.052;2023-01-10T03:57:28;6.50;99.90
40960;DHT22;27842;52.272;8.052;2023-01-10T03:59:55;6.50;99.90
40960;DHT22;27842;52.272;8.052;2023-01-10T04:02:28;6.50;99.90
40960;DHT22;27842;52.272;8.052;2023-01-10T04:04:55;6.50;99.90
40960;DHT22;27842;52.272;8.052;2023-01-10T04:07:21;6.50;99.90
40960;DHT22;27842;52.272;8.052;2023-01-10T04:09:47;6.50;99.90
40960;DHT22;27842;52.272;8.052;2023-01-10T04:12:12;6.50;99.90
40960;DHT22;27842;52.272;8.052;2023-01-10T04:14:38;6.50;99.90
40960;DHT22;27842;52.272;8.052;2023-01-10T04:17:03;6.50;99.90
40960;DHT22;27842;52.272;8.052;2023-01-10T04:19:30;6.50;99.90
40960;DHT22;27842;52.272;8.052;2023-01-10T04:21:55;6.50;99.90
40960;DHT22;27842;52.272;8.052;2023-01-10T04:24:21;6.50;99.90
40960;DHT22;27842;52.272;8.052;2023-01-10T04:26:47;6.40;99.90
40960;DHT22;27842;52.272;8.052;2023-01-10T04:29:12;6.40;99.90
40960;DHT22;27842;52.272;8.052;2023-01-10T04:31:38;6.40;99.90
40960;DHT22;27842;52.272;8.052;2023-01-10T04:34:07;6.40;99.90
40960;DHT22;27842;52.272;8.052;2023-01-10T04:36:33;6.40;99.90
40960;DHT22;27842;52.272;8.052;2023-01-10T04:38:59;6.30;99.90
40960;DHT22;27842;52.272;8.052;2023-01-10T04:41:25;6.40;99.90
40960;DHT22;27842;52.272;8.052;2023-01-10T04:43:50;6.40;99.90
40960;DHT22;27842;52.272;8.052;2023-01-10T04:46:16;6.30;99.90
40960;DHT22;27842;52.272;8.052;2023-01-10T04:48:42;6.40;99.90
40960;DHT22;27842;52.272;8.052;2023-01-10T04:51:08;6.40;99.90
40960;DHT22;27842;52.272;8.052;2023-01-10T04:53:33;6.30;99.90
40960;DHT22;27842;52.272;8.052;2023-01-10T04:56:07;6.30;99.90
40960;DHT22;27842;52.272;8.052;2023-01-10T04:58:34;6.30;99.90
40960;DHT22;27842;52.272;8.052;2023-01-10T05:01:09;6.30;99.90
40960;DHT22;27842;52.272;8.052;2023-01-10T05:03:35;6.30;99.90
40960;DHT22;27842;52.272;8.052;2023-01-10T05:06:01;6.40;99.90
40960;DHT22;27842;52.272;8.052;2023-01-10T05:08:27;6.40;99.90
40960;DHT22;27842;52.272;8.052;2023-01-10T05:10:52;6.40;99.90
40960;DHT22;27842;52.272;8.052;2023-01-10T05:13:18;6.40;99.90
40960;DHT22;27842;52.272;8.052;2023-01-10T05:15:43;6.40;99.90
40960;DHT22;27842;52.272;8.052;2023-01-10T05:18:09;6.40;99.90
40960;DHT22;27842;52.272;8.052;2023-01-10T05:20:34;6.40;99.90
40960;DHT22;27842;52.272;8.052;2023-01-10T05:23:00;6.40;99.90
40960;DHT22;27842;52.272;8.052;2023-01-10T05:25:25;6.40;99.90
40960;DHT22;27842;52.272;8.052;2023-01-10T05:27:51;6.40;99.90
40960;DHT22;27842;52.272;8.052;2023-01-10T05:30:16;6.40;99.90
40960;DHT22;27842;52.272;8.052;2023-01-10T05:32:42;6.40;99.90
40960;DHT22;27842;52.272;8.052;2023-01-10T05:35:08;6.30;99.90
40960;DHT22;27842;52.272;8.052;2023-01-10T05:37:33;6.30;99.90
40960;DHT22;27842;52.272;8.052;2023-01-10T05:39:59;6.30;99.90
40960;DHT22;27842;52.272;8.052;2023-01-10T05:42:24;6.30;99.90
40960;DHT22;27842;52.272;8.052;2023-01-10T05:44:50;6.30;99.90
40960;DHT22;27842;52.272;8.052;2023-01-10T05:47:15;6.30;99.90
40960;DHT22;27842;52.272;8.052;2023-01-10T05:49:41;6.30;99.90
40960;DHT22;27842;52.272;8.052;2023-01-10T05:52:07;6.30;99.90
40960;DHT22;27842;52.272;8.052;2023-01-10T05:54:32;6.30;99.90
40960;DHT22;27842;52.272;8.052;2023-01-10T05:56:58;6.30;99.90
40960;DHT22;27842;52.272;8.052;2023-01-10T05:59:23;6.30;99.90
40960;DHT22;27842;52.272;8.052;2023-01-10T06:01:49;6.20;99.90
40960;DHT22;27842;52.272;8.052;2023-01-10T06:04:14;6.20;99.90
40960;DHT22;27842;52.272;8.052;2023-01-10T06:06:40;6.20;99.90
40960;DHT22;27842;52.272;8.052;2023-01-10T06:09:06;6.20;99.90
40960;DHT22;27842;52.272;8.052;2023-01-10T06:11:32;6.20;99.90
40960;DHT22;27842;52.272;8.052;2023-01-10T06:14:01;6.20;99.90
40960;DHT22;27842;52.272;8.052;2023-01-10T06:16:27;6.20;99.90
40960;DHT22;27842;52.272;8.052;2023-01-10T06:18:53;6.20;99.90
40960;DHT22;27842;52.272;8.052;2023-01-10T06:21:19;6.20;99.90
40960;DHT22;27842;52.272;8.052;2023-01-10T06:23:45;6.20;99.90
40960;DHT22;27842;52.272;8.052;2023-01-10T06:26:11;6.20;99.90
40960;DHT22;27842;52.272;8.052;2023-01-10T06:28:36;6.20;99.90
40960;DHT22;27842;52.272;8.052;2023-01-10T06:31:02;6.20;99.90
40960;DHT22;27842;52.272;8.052;2023-01-10T06:33:28;6.20;99.90
40960;DHT22;27842;52.272;8.052;2023-01-10T06:35:53;6.30;99.90
40960;DHT22;27842;52.272;8.052;2023-01-10T06:38:19;6.30;99.90
40960;DHT22;27842;52.272;8.052;2023-01-10T06:40:44;6.30;99.90
40960;DHT22;27842;52.272;8.052;2023-01-10T06:43:10;6.30;99.90
40960;DHT22;27842;52.272;8.052;2023-01-10T06:45:36;6.30;99.90
40960;DHT22;27842;52.272;8.052;2023-01-10T06:48:01;6.30;99.90
40960;DHT22;27842;52.272;8.052;2023-01-10T06:50:27;6.30;99.90
40960;DHT22;27842;52.272;8.052;2023-01-10T06:53:00;6.30;99.90
40960;DHT22;27842;52.272;8.052;2023-01-10T06:55:27;6.30;99.90
40960;DHT22;27842;52.272;8.052;2023-01-10T06:57:57;6.30;99.90
40960;DHT22;27842;52.272;8.052;2023-01-10T07:00:23;6.30;99.90
40960;DHT22;27842;52.272;8.052;2023-01-10T07:02:50;6.30;99.90
40960;DHT22;27842;52.272;8.052;2023-01-10T07:05:16;6.30;99.90
40960;DHT22;27842;52.272;8.052;2023-01-10T07:07:41;6.30;99.90
40960;DHT22;27842;52.272;8.052;2023-01-10T07:10:07;6.30;99.90
40960;DHT22;27842;52.272;8.052;2023-01-10T07:12:33;6.30;99.90
40960;DHT22;27842;52.272;8.052;2023-01-10T07:14:58;6.30;99.90
40960;DHT22;27842;52.272;8.052;2023-01-10T07:17:24;6.30;99.90
40960;DHT22;27842;52.272;8.052;2023-01-10T07:19:50;6.30;99.90
40960;DHT22;27842;52.272;8.052;2023-01-10T07:22:15;6.30;99.90
40960;DHT22;27842;52.272;8.052;2023-01-10T07:24:41;6.30;99.90
40960;DHT22;27842;52.272;8.052;2023-01-10T07:27:07;6.20;99.90
40960;DHT22;27842;52.272;8.052;2023-01-10T07:29:32;6.20;99.90
40960;DHT22;27842;52.272;8.052;2023-01-10T07:31:58;6.20;99.90
40960;DHT22;27842;52.272;8.052;2023-01-10T07:34:24;6.20;99.90
40960;DHT22;27842;52.272;8.052;2023-01-10T07:36:49;6.20;99.90
40960;DHT22;27842;52.272;8.052;2023-01-10T07:39:15;6.20;99.90
40960;DHT22;27842;52.272;8.052;2023-01-10T07:41:40;6.30;99.90
40960;DHT22;27842;52.272;8.052;2023-01-10T07:44:06;6.30;99.90
40960;DHT22;27842;52.272;8.052;2023-01-10T07:46:31;6.30;99.90
40960;DHT22;27842;52.272;8.052;2023-01-10T07:48:57;6.30;99.90
40960;DHT22;27842;52.272;8.052;2023-01-10T07:51:22;6.30;99.90
40960;DHT22;27842;52.272;8.052;2023-01-10T07:53:48;6.30;99.90
40960;DHT22;27842;52.272;8.052;2023-01-10T07:56:14;6.30;99.90
40960;DHT22;27842;52.272;8.052;2023-01-10T07:58:39;6.30;99.90
40960;DHT22;27842;52.272;8.052;2023-01-10T08:01:05;6.30;99.90
40960;DHT22;27842;52.272;8.052;2023-01-10T08:03:31;6.30;99.90
40960;DHT22;27842;52.272;8.052;2023-01-10T08:06:06;6.30;99.90
40960;DHT22;27842;52.272;8.052;2023-01-10T08:08:33;6.30;99.90
40960;DHT22;27842;52.272;8.052;2023-01-10T08:10:59;6.30;99.90
40960;DHT22;27842;52.272;8.052;2023-01-10T08:13:27;6.30;99.90
40960;DHT22;27842;52.272;8.052;2023-01-10T08:15:53;6.30;99.90
40960;DHT22;27842;52.272;8.052;2023-01-10T08:18:20;6.30;99.90
40960;DHT22;27842;52.272;8.052;2023-01-10T08:20:54;6.30;99.90
40960;DHT22;27842;52.272;8.052;2023-01-10T08:23:20;6.30;99.90
40960;DHT22;27842;52.272;8.052;2023-01-10T08:25:46;6.30;99.90
40960;DHT22;27842;52.272;8.052;2023-01-10T08:28:12;6.30;99.90
40960;DHT22;27842;52.272;8.052;2023-01-10T08:30:38;6.30;99.90
40960;DHT22;27842;52.272;8.052;2023-01-10T08:33:05;6.30;99.90
40960;DHT22;27842;52.272;8.052;2023-01-10T08:35:40;6.30;99.90
40960;DHT22;27842;52.272;8.052;2023-01-10T08:38:07;6.30;99.90
40960;DHT22;27842;52.272;8.052;2023-01-10T08:40:33;6.40;99.90
40960;DHT22;27842;52.272;8.052;2023-01-10T08:42:59;6.40;99.90
40960;DHT22;27842;52.272;8.052;2023-01-10T08:45:26;6.30;99.90
40960;DHT22;27842;52.272;8.052;2023-01-10T08:47:52;6.40;99.90
40960;DHT22;27842;52.272;8.052;2023-01-10T08:50:18;6.30;99.90
40960;DHT22;27842;52.272;8.052;2023-01-10T08:52:44;6.40;99.90
40960;DHT22;27842;52.272;8.052;2023-01-10T08:55:10;6.30;99.90
40960;DHT22;27842;52.272;8.052;2023-01-10T08:57:35;6.30;99.90
40960;DHT22;27842;52.272;8.052;2023-01-10T09:00:02;6.40;99.90
40960;DHT22;27842;52.272;8.052;2023-01-10T09:02:27;6.40;99.90
40960;DHT22;27842;52.272;8.052;2023-01-10T09:04:53;6.40;99.90
40960;DHT22;27842;52.272;8.052;2023-01-10T09:07:18;6.40;99.90
40960;DHT22;27842;52.272;8.052;2023-01-10T09:09:44;6.50;99.90
40960;DHT22;27842;52.272;8.052;2023-01-10T09:12:10;6.40;99.90
40960;DHT22;27842;52.272;8.052;2023-01-10T09:14:54;6.50;99.90
40960;DHT22;27842;52.272;8.052;2023-01-10T09:17:20;6.50;99.90
40960;DHT22;27842;52.272;8.052;2023-01-10T09:19:46;6.50;99.90
40960;DHT22;27842;52.272;8.052;2023-01-10T09:22:12;6.50;99.90
40960;DHT22;27842;52.272;8.052;2023-01-10T09:24:38;6.50;99.90
40960;DHT22;27842;52.272;8.052;2023-01-10T09:27:04;6.50;99.90
40960;DHT22;27842;52.272;8.052;2023-01-10T09:29:29;6.50;99.90
40960;DHT22;27842;52.272;8.052;2023-01-10T09:31:55;6.50;99.90
40960;DHT22;27842;52.272;8.052;2023-01-10T09:34:20;6.50;99.90
40960;DHT22;27842;52.272;8.052;2023-01-10T09:36:46;6.40;99.90
40960;DHT22;27842;52.272;8.052;2023-01-10T09:39:12;6.40;99.90
40960;DHT22;27842;52.272;8.052;2023-01-10T09:45:56;6.50;99.90
40960;DHT22;27842;52.272;8.052;2023-01-10T09:48:05;6.50;99.90
40960;DHT22;27842;52.272;8.052;2023-01-10T09:53:31;6.50;99.90
40960;DHT22;27842;52.272;8.052;2023-01-10T09:55:58;6.50;99.90
40960;DHT22;27842;52.272;8.052;2023-01-10T09:58:28;6.50;99.90
40960;DHT22;27842;52.272;8.052;2023-01-10T10:01:03;6.50;99.90
40960;DHT22;27842;52.272;8.052;2023-01-10T10:03:50;6.60;99.90
40960;DHT22;27842;52.272;8.052;2023-01-10T10:06:21;6.60;99.90
40960;DHT22;27842;52.272;8.052;2023-01-10T10:08:47;6.60;99.90
40960;DHT22;27842;52.272;8.052;2023-01-10T10:14:29;6.60;99.90
40960;DHT22;27842;52.272;8.052;2023-01-10T10:34:29;6.80;99.90
40960;DHT22;27842;52.272;8.052;2023-01-10T10:37:16;6.80;99.90
40960;DHT22;27842;52.272;8.052;2023-01-10T10:39:50;6.80;99.90
40960;DHT22;27842;52.272;8.052;2023-01-10T10:42:18;6.80;99.90
40960;DHT22;27842;52.272;8.052;2023-01-10T10:47:44;6.80;99.90
40960;DHT22;27842;52.272;8.052;2023-01-10T10:52:40;6.80;99.90
40960;DHT22;27842;52.272;8.052;2023-01-10T10:55:12;6.90;99.90
40960;DHT22;27842;52.272;8.052;2023-01-10T10:57:39;6.80;99.90
40960;DHT22;27842;52.272;8.052;2023-01-10T11:00:09;6.80;99.90
40960;DHT22;27842;52.272;8.052;2023-01-10T11:02:42;6.80;99.90
40960;DHT22;27842;52.272;8.052;2023-01-10T11:05:20;6.80;99.90
40960;DHT22;27842;52.272;8.052;2023-01-10T11:07:46;6.80;99.90
40960;DHT22;27842;52.272;8.052;2023-01-10T11:10:23;6.80;99.90
40960;DHT22;27842;52.272;8.052;2023-01-10T11:13:21;6.80;99.90
40960;DHT22;27842;52.272;8.052;2023-01-10T11:15:49;6.80;99.90
40960;DHT22;27842;52.272;8.052;2023-01-10T11:18:20;6.90;99.90
40960;DHT22;27842;52.272;8.052;2023-01-10T11:21:10;6.90;99.90
40960;DHT22;27842;52.272;8.052;2023-01-10T11:23:57;6.90;99.90
40960;DHT22;27842;52.272;8.052;2023-01-10T11:28:50;6.90;99.90
40960;DHT22;27842;52.272;8.052;2023-01-10T11:31:26;7.00;99.90
40960;DHT22;27842;52.272;8.052;2023-01-10T11:33:52;7.00;99.90
40960;DHT22;27842;52.272;8.052;2023-01-10T11:36:18;7.00;99.90
40960;DHT22;27842;52.272;8.052;2023-01-10T11:38:59;7.10;99.90
40960;DHT22;27842;52.272;8.052;2023-01-10T11:41:26;7.10;99.90
40960;DHT22;27842;52.272;8.052;2023-01-10T11:44:20;7.10;99.90
40960;DHT22;27842;52.272;8.052;2023-01-10T11:46:48;7.10;99.90
40960;DHT22;27842;52.272;8.052;2023-01-10T11:49:22;7.20;99.90
40960;DHT22;27842;52.272;8.052;2023-01-10T11:51:50;7.20;99.90
40960;DHT22;27842;52.272;8.052;2023-01-10T11:54:27;7.30;99.90
40960;DHT22;27842;52.272;8.052;2023-01-10T11:57:16;7.20;99.90
40960;DHT22;27842;52.272;8.052;2023-01-10T12:00:06;7.20;99.90
40960;DHT22;27842;52.272;8.052;2023-01-10T12:02:43;7.30;99.90
40960;DHT22;27842;52.272;8.052;2023-01-10T12:05:18;7.30;99.90
40960;DHT22;27842;52.272;8.052;2023-01-10T12:07:58;7.30;99.90
40960;DHT22;27842;52.272;8.052;2023-01-10T12:10:26;7.30;99.90
40960;DHT22;27842;52.272;8.052;2023-01-10T12:12:58;7.30;99.90
40960;DHT22;27842;52.272;8.052;2023-01-10T12:15:28;7.40;99.90
40960;DHT22;27842;52.272;8.052;2023-01-10T12:17:56;7.40;99.90
40960;DHT22;27842;52.272;8.052;2023-01-10T12:20:25;7.40;99.90
40960;DHT22;27842;52.272;8.052;2023-01-10T12:22:55;7.40;99.90
40960;DHT22;27842;52.272;8.052;2023-01-10T12:25:36;7.40;99.90
40960;DHT22;27842;52.272;8.052;2023-01-10T12:28:02;7.40;99.90
40960;DHT22;27842;52.272;8.052;2023-01-10T12:30:35;7.40;99.90
40960;DHT22;27842;52.272;8.052;2023-01-10T12:33:06;7.50;99.90
40960;DHT22;27842;52.272;8.052;2023-01-10T12:36:00;7.50;99.90
40960;DHT22;27842;52.272;8.052;2023-01-10T12:38:37;7.40;99.90
40960;DHT22;27842;52.272;8.052;2023-01-10T12:44:27;7.50;99.90
40960;DHT22;27842;52.272;8.052;2023-01-10T12:52:36;7.50;99.90
40960;DHT22;27842;52.272;8.052;2023-01-10T12:55:12;7.50;99.90
40960;DHT22;27842;52.272;8.052;2023-01-10T12:57:38;7.50;99.90
40960;DHT22;27842;52.272;8.052;2023-01-10T13:00:06;7.50;99.90
40960;DHT22;27842;52.272;8.052;2023-01-10T13:02:41;7.50;99.90
40960;DHT22;27842;52.272;8.052;2023-01-10T13:05:23;7.50;99.90
40960;DHT22;27842;52.272;8.052;2023-01-10T13:07:51;7.50;99.90
40960;DHT22;27842;52.272;8.052;2023-01-10T13:10:23;7.50;99.90
40960;DHT22;27842;52.272;8.052;2023-01-10T13:12:56;7.50;99.90
40960;DHT22;27842;52.272;8.052;2023-01-10T13:15:31;7.50;99.90
40960;DHT22;27842;52.272;8.052;2023-01-10T13:18:22;7.50;99.90
40960;DHT22;27842;52.272;8.052;2023-01-10T13:20:48;7.50;99.90
40960;DHT22;27842;52.272;8.052;2023-01-10T13:23:30;7.40;99.90
40960;DHT22;27842;52.272;8.052;2023-01-10T13:26:06;7.40;99.90
40960;DHT22;27842;52.272;8.052;2023-01-10T13:28:36;7.40;99.90
40960;DHT22;27842;52.272;8.052;2023-01-10T13:31:07;7.40;99.90
40960;DHT22;27842;52.272;8.052;2023-01-10T13:36:17;7.40;99.90
40960;DHT22;27842;52.272;8.052;2023-01-10T13:38:51;7.40;99.90
40960;DHT22;27842;52.272;8.052;2023-01-10T13:41:19;7.40;99.90
40960;DHT22;27842;52.272;8.052;2023-01-10T13:44:12;7.40;99.90
40960;DHT22;27842;52.272;8.052;2023-01-10T13:46:41;7.40;99.90
40960;DHT22;27842;52.272;8.052;2023-01-10T13:51:36;7.40;99.90
40960;DHT22;27842;52.272;8.052;2023-01-10T13:59:02;7.40;99.90
40960;DHT22;27842;52.272;8.052;2023-01-10T14:01:54;7.40;99.90
40960;DHT22;27842;52.272;8.052;2023-01-10T14:04:46;7.40;99.90
40960;DHT22;27842;52.272;8.052;2023-01-10T14:07:32;7.40;99.90
40960;DHT22;27842;52.272;8.052;2023-01-10T14:10:08;7.30;99.90
40960;DHT22;27842;52.272;8.052;2023-01-10T14:12:51;7.40;99.90
40960;DHT22;27842;52.272;8.052;2023-01-10T14:15:28;7.40;99.90
40960;DHT22;27842;52.272;8.052;2023-01-10T14:18:15;7.40;99.90
40960;DHT22;27842;52.272;8.052;2023-01-10T14:20:43;7.40;99.90
40960;DHT22;27842;52.272;8.052;2023-01-10T14:25:42;7.40;99.90
40960;DHT22;27842;52.272;8.052;2023-01-10T14:28:22;7.40;99.90
40960;DHT22;27842;52.272;8.052;2023-01-10T14:31:02;7.40;99.90
40960;DHT22;27842;52.272;8.052;2023-01-10T14:33:29;7.40;99.90
40960;DHT22;27842;52.272;8.052;2023-01-10T14:35:59;7.30;99.90
40960;DHT22;27842;52.272;8.052;2023-01-10T14:38:31;7.30;99.90
40960;DHT22;27842;52.272;8.052;2023-01-10T14:41:17;7.40;99.90
40960;DHT22;27842;52.272;8.052;2023-01-10T14:46:49;7.40;99.90
40960;DHT22;27842;52.272;8.052;2023-01-10T14:49:40;7.40;99.90
40960;DHT22;27842;52.272;8.052;2023-01-10T14:52:16;7.40;99.90
40960;DHT22;27842;52.272;8.052;2023-01-10T14:54:44;7.40;99.90
40960;DHT22;27842;52.272;8.052;2023-01-10T14:57:18;7.40;99.90
40960;DHT22;27842;52.272;8.052;2023-01-10T14:59:44;7.40;99.90
40960;DHT22;27842;52.272;8.052;2023-01-10T15:02:21;7.40;99.90
40960;DHT22;27842;52.272;8.052;2023-01-10T15:04:52;7.40;99.90
40960;DHT22;27842;52.272;8.052;2023-01-10T15:07:19;7.40;99.90
40960;DHT22;27842;52.272;8.052;2023-01-10T15:09:52;7.40;99.90
40960;DHT22;27842;52.272;8.052;2023-01-10T15:12:19;7.40;99.90
40960;DHT22;27842;52.272;8.052;2023-01-10T15:14:48;7.40;99.90
40960;DHT22;27842;52.272;8.052;2023-01-10T15:17:16;7.40;99.90
40960;DHT22;27842;52.272;8.052;2023-01-10T15:19:46;7.40;99.90
40960;DHT22;27842;52.272;8.052;2023-01-10T15:22:34;7.40;99.90
40960;DHT22;27842;52.272;8.052;2023-01-10T15:27:48;7.40;99.90
40960;DHT22;27842;52.272;8.052;2023-01-10T15:30:21;7.40;99.90
40960;DHT22;27842;52.272;8.052;2023-01-10T15:32:53;7.40;99.90
40960;DHT22;27842;52.272;8.052;2023-01-10T15:35:22;7.40;99.90
40960;DHT22;27842;52.272;8.052;2023-01-10T15:38:01;7.40;99.90
40960;DHT22;27842;52.272;8.052;2023-01-10T15:40:31;7.40;99.90
40960;DHT22;27842;52.272;8.052;2023-01-10T15:45:35;7.50;99.90
40960;DHT22;27842;52.272;8.052;2023-01-10T15:48:02;7.50;99.90
40960;DHT22;27842;52.272;8.052;2023-01-10T15:50:31;7.40;99.90
40960;DHT22;27842;52.272;8.052;2023-01-10T15:53:01;7.50;99.90
40960;DHT22;27842;52.272;8.052;2023-01-10T15:58:21;7.50;99.90
40960;DHT22;27842;52.272;8.052;2023-01-10T16:00:50;7.50;99.90
40960;DHT22;27842;52.272;8.052;2023-01-10T16:03:32;7.50;99.90
40960;DHT22;27842;52.272;8.052;2023-01-10T16:05:59;7.50;99.90
40960;DHT22;27842;52.272;8.052;2023-01-10T16:08:29;7.50;99.90
40960;DHT22;27842;52.272;8.052;2023-01-10T16:10:58;7.50;99.90
40960;DHT22;27842;52.272;8.052;2023-01-10T16:13:24;7.50;99.90
40960;DHT22;27842;52.272;8.052;2023-01-10T16:15:58;7.50;99.90
40960;DHT22;27842;52.272;8.052;2023-01-10T16:18:24;7.50;99.90
40960;DHT22;27842;52.272;8.052;2023-01-10T16:20:54;7.50;99.90
40960;DHT22;27842;52.272;8.052;2023-01-10T16:23:30;7.50;99.90
40960;DHT22;27842;52.272;8.052;2023-01-10T16:25:59;7.50;99.90
40960;DHT22;27842;52.272;8.052;2023-01-10T16:28:26;7.50;99.90
40960;DHT22;27842;52.272;8.052;2023-01-10T16:30:53;7.50;99.90
40960;DHT22;27842;52.272;8.052;2023-01-10T16:33:24;7.50;99.90
40960;DHT22;27842;52.272;8.052;2023-01-10T16:35:53;7.50;99.90
40960;DHT22;27842;52.272;8.052;2023-01-10T16:38:19;7.50;99.90
40960;DHT22;27842;52.272;8.052;2023-01-10T16:41:08;7.50;99.90
40960;DHT22;27842;52.272;8.052;2023-01-10T16:43:52;7.50;99.90
40960;DHT22;27842;52.272;8.052;2023-01-10T16:46:18;7.50;99.90
40960;DHT22;27842;52.272;8.052;2023-01-10T16:48:44;7.50;99.90
40960;DHT22;27842;52.272;8.052;2023-01-10T16:51:17;7.50;99.90
40960;DHT22;27842;52.272;8.052;2023-01-10T16:53:43;7.50;99.90
40960;DHT22;27842;52.272;8.052;2023-01-10T16:56:21;7.60;99.90
40960;DHT22;27842;52.272;8.052;2023-01-10T16:58:47;7.60;99.90
40960;DHT22;27842;52.272;8.052;2023-01-10T17:01:18;7.50;99.90
40960;DHT22;27842;52.272;8.052;2023-01-10T17:03:45;7.50;99.90
40960;DHT22;27842;52.272;8.052;2023-01-10T17:06:12;7.50;99.90
40960;DHT22;27842;52.272;8.052;2023-01-10T17:08:43;7.50;99.90
40960;DHT22;27842;52.272;8.052;2023-01-10T17:11:16;7.50;99.90
40960;DHT22;27842;52.272;8.052;2023-01-10T17:13:44;7.50;99.90
40960;DHT22;27842;52.272;8.052;2023-01-10T17:16:19;7.50;99.90
40960;DHT22;27842;52.272;8.052;2023-01-10T17:18:45;7.40;99.90
40960;DHT22;27842;52.272;8.052;2023-01-10T17:21:18;7.50;99.90
40960;DHT22;27842;52.272;8.052;2023-01-10T17:23:44;7.50;99.90
40960;DHT22;27842;52.272;8.052;2023-01-10T17:26:12;7.50;99.90
40960;DHT22;27842;52.272;8.052;2023-01-10T17:28:39;7.50;99.90
40960;DHT22;27842;52.272;8.052;2023-01-10T17:31:06;7.50;99.90
40960;DHT22;27842;52.272;8.052;2023-01-10T17:33:32;7.50;99.90
40960;DHT22;27842;52.272;8.052;2023-01-10T17:35:59;7.40;99.90
40960;DHT22;27842;52.272;8.052;2023-01-10T17:38:25;7.40;99.90
40960;DHT22;27842;52.272;8.052;2023-01-10T17:40:52;7.40;99.90
40960;DHT22;27842;52.272;8.052;2023-01-10T17:43:19;7.40;99.90
40960;DHT22;27842;52.272;8.052;2023-01-10T17:45:49;7.50;99.90
40960;DHT22;27842;52.272;8.052;2023-01-10T17:48:17;7.40;99.90
40960;DHT22;27842;52.272;8.052;2023-01-10T17:50:43;7.50;99.90
40960;DHT22;27842;52.272;8.052;2023-01-10T17:53:09;7.50;99.90
40960;DHT22;27842;52.272;8.052;2023-01-10T17:55:35;7.40;99.90
40960;DHT22;27842;52.272;8.052;2023-01-10T17:58:01;7.50;99.90
40960;DHT22;27842;52.272;8.052;2023-01-10T18:00:28;7.50;99.90
40960;DHT22;27842;52.272;8.052;2023-01-10T18:02:53;7.40;99.90
40960;DHT22;27842;52.272;8.052;2023-01-10T18:05:19;7.40;99.90
40960;DHT22;27842;52.272;8.052;2023-01-10T18:07:45;7.40;99.90
40960;DHT22;27842;52.272;8.052;2023-01-10T18:10:11;7.40;99.90
40960;DHT22;27842;52.272;8.052;2023-01-10T18:12:36;7.40;99.90
40960;DHT22;27842;52.272;8.052;2023-01-10T18:15:03;7.40;99.90
40960;DHT22;27842;52.272;8.052;2023-01-10T18:17:29;7.40;99.90
40960;DHT22;27842;52.272;8.052;2023-01-10T18:19:54;7.40;99.90
40960;DHT22;27842;52.272;8.052;2023-01-10T18:22:20;7.40;99.90
40960;DHT22;27842;52.272;8.052;2023-01-10T18:25:04;7.30;99.90
40960;DHT22;27842;52.272;8.052;2023-01-10T18:27:30;7.30;99.90
40960;DHT22;27842;52.272;8.052;2023-01-10T18:29:56;7.30;99.90
40960;DHT22;27842;52.272;8.052;2023-01-10T18:32:22;7.30;99.90
40960;DHT22;27842;52.272;8.052;2023-01-10T18:34:48;7.20;99.90
40960;DHT22;27842;52.272;8.052;2023-01-10T18:37:17;7.20;99.90
40960;DHT22;27842;52.272;8.052;2023-01-10T18:39:43;7.20;99.90
40960;DHT22;27842;52.272;8.052;2023-01-10T18:42:10;7.10;99.90
40960;DHT22;27842;52.272;8.052;2023-01-10T18:44:36;7.20;99.90